Rolfe, Iowa
Current Conditions -  °F | °C
As of 12:15 PM on Monday 26 Jan 2015 (Local Time) from KAXA Reporting Station
Clear Clear  
Wind Chill: 35°   Ceiling: Unl
Heat Index: 43°   Visibility: NA
Dew Point: 37°   Wind: 15mph
Humidity: 81%   Direction: 330°NNW
Pressure: 29.8"   Gusts: 24mph
Location:  42.81°N, 94.53°W
Report Text: KAXA 261815Z AUTO 33013G21KT CLR 06/03 A2980 RMK AO2
Loading
Personal Weather Stations






























Interactive Weather Map New forecast layout! Learn more

10-Day Weather Forecast

Advertisements
Track Severe Weather on mobile